sensor_id;sensor_type;location;lat;lon;timestamp;P1;durP1;ratioP1;P2;durP2;ratioP2
13026;SDS011;6580;42.680;23.324;2023-04-25T00:00:33;4.73;;;3.80;;
13026;SDS011;6580;42.680;23.324;2023-04-25T00:03:21;4.67;;;3.80;;
13026;SDS011;6580;42.680;23.324;2023-04-25T00:06:08;3.40;;;3.10;;
13026;SDS011;6580;42.680;23.324;2023-04-25T00:08:54;3.10;;;2.90;;
13026;SDS011;6580;42.680;23.324;2023-04-25T00:11:40;4.17;;;3.73;;
13026;SDS011;6580;42.680;23.324;2023-04-25T00:14:27;5.17;;;4.03;;
13026;SDS011;6580;42.680;23.324;2023-04-25T00:17:13;4.17;;;3.73;;
13026;SDS011;6580;42.680;23.324;2023-04-25T00:20:03;3.40;;;3.20;;
13026;SDS011;6580;42.680;23.324;2023-04-25T00:22:52;3.60;;;3.30;;
13026;SDS011;6580;42.680;23.324;2023-04-25T00:25:38;3.60;;;3.27;;
13026;SDS011;6580;42.680;23.324;2023-04-25T00:28:23;3.97;;;3.20;;
13026;SDS011;6580;42.680;23.324;2023-04-25T00:31:09;3.80;;;3.50;;
13026;SDS011;6580;42.680;23.324;2023-04-25T00:33:55;3.87;;;3.57;;
13026;SDS011;6580;42.680;23.324;2023-04-25T00:36:42;3.60;;;3.30;;
13026;SDS011;6580;42.680;23.324;2023-04-25T00:39:27;5.30;;;4.03;;
13026;SDS011;6580;42.680;23.324;2023-04-25T00:42:13;4.87;;;3.37;;
13026;SDS011;6580;42.680;23.324;2023-04-25T00:45:01;3.63;;;3.33;;
13026;SDS011;6580;42.680;23.324;2023-04-25T00:47:51;4.70;;;3.53;;
13026;SDS011;6580;42.680;23.324;2023-04-25T00:50:37;4.60;;;4.20;;
13026;SDS011;6580;42.680;23.324;2023-04-25T00:53:29;5.23;;;4.10;;
13026;SDS011;6580;42.680;23.324;2023-04-25T00:56:19;4.47;;;4.00;;
13026;SDS011;6580;42.680;23.324;2023-04-25T00:59:06;5.63;;;4.10;;
13026;SDS011;6580;42.680;23.324;2023-04-25T01:01:52;5.23;;;4.33;;
13026;SDS011;6580;42.680;23.324;2023-04-25T01:04:39;5.63;;;4.33;;
13026;SDS011;6580;42.680;23.324;2023-04-25T01:07:24;4.67;;;4.17;;
13026;SDS011;6580;42.680;23.324;2023-04-25T01:10:12;5.43;;;4.40;;
13026;SDS011;6580;42.680;23.324;2023-04-25T01:12:57;4.40;;;3.87;;
13026;SDS011;6580;42.680;23.324;2023-04-25T01:15:43;4.70;;;4.27;;
13026;SDS011;6580;42.680;23.324;2023-04-25T01:18:29;6.03;;;4.13;;
13026;SDS011;6580;42.680;23.324;2023-04-25T01:21:16;4.70;;;3.80;;
13026;SDS011;6580;42.680;23.324;2023-04-25T01:24:01;5.10;;;3.97;;
13026;SDS011;6580;42.680;23.324;2023-04-25T01:26:48;4.20;;;3.80;;
13026;SDS011;6580;42.680;23.324;2023-04-25T01:29:34;5.23;;;4.13;;
13026;SDS011;6580;42.680;23.324;2023-04-25T01:32:20;4.57;;;4.17;;
13026;SDS011;6580;42.680;23.324;2023-04-25T01:35:08;4.53;;;3.97;;
13026;SDS011;6580;42.680;23.324;2023-04-25T01:37:57;3.73;;;3.43;;
13026;SDS011;6580;42.680;23.324;2023-04-25T01:40:44;4.47;;;3.73;;
13026;SDS011;6580;42.680;23.324;2023-04-25T01:43:30;4.43;;;3.40;;
13026;SDS011;6580;42.680;23.324;2023-04-25T01:46:16;4.00;;;3.50;;
13026;SDS011;6580;42.680;23.324;2023-04-25T01:49:02;5.50;;;4.13;;
13026;SDS011;6580;42.680;23.324;2023-04-25T01:51:51;4.03;;;3.73;;
13026;SDS011;6580;42.680;23.324;2023-04-25T01:54:37;4.30;;;3.90;;
13026;SDS011;6580;42.680;23.324;2023-04-25T01:57:27;3.70;;;3.40;;
13026;SDS011;6580;42.680;23.324;2023-04-25T02:00:13;4.43;;;3.97;;
13026;SDS011;6580;42.680;23.324;2023-04-25T02:02:58;4.13;;;3.73;;
13026;SDS011;6580;42.680;23.324;2023-04-25T02:05:46;3.77;;;3.30;;
13026;SDS011;6580;42.680;23.324;2023-04-25T02:08:34;3.97;;;3.50;;
13026;SDS011;6580;42.680;23.324;2023-04-25T02:11:23;3.73;;;3.37;;
13026;SDS011;6580;42.680;23.324;2023-04-25T02:14:11;4.00;;;3.60;;
13026;SDS011;6580;42.680;23.324;2023-04-25T02:16:57;3.90;;;3.50;;
13026;SDS011;6580;42.680;23.324;2023-04-25T02:19:42;3.90;;;3.50;;
13026;SDS011;6580;42.680;23.324;2023-04-25T02:22:28;3.77;;;3.47;;
13026;SDS011;6580;42.680;23.324;2023-04-25T02:25:14;4.30;;;3.53;;
13026;SDS011;6580;42.680;23.324;2023-04-25T02:28:02;3.53;;;3.23;;
13026;SDS011;6580;42.680;23.324;2023-04-25T02:30:48;4.07;;;3.27;;
13026;SDS011;6580;42.680;23.324;2023-04-25T02:33:33;5.03;;;3.70;;
13026;SDS011;6580;42.680;23.324;2023-04-25T02:36:20;5.53;;;4.13;;
13026;SDS011;6580;42.680;23.324;2023-04-25T02:39:06;3.57;;;3.27;;
13026;SDS011;6580;42.680;23.324;2023-04-25T02:41:51;4.70;;;4.00;;
13026;SDS011;6580;42.680;23.324;2023-04-25T02:44:40;3.67;;;3.37;;
13026;SDS011;6580;42.680;23.324;2023-04-25T02:47:27;4.60;;;4.10;;
13026;SDS011;6580;42.680;23.324;2023-04-25T02:50:12;4.40;;;3.50;;
13026;SDS011;6580;42.680;23.324;2023-04-25T02:52:57;4.23;;;3.70;;
13026;SDS011;6580;42.680;23.324;2023-04-25T02:55:44;3.90;;;3.60;;
13026;SDS011;6580;42.680;23.324;2023-04-25T02:58:30;4.53;;;4.13;;
13026;SDS011;6580;42.680;23.324;2023-04-25T03:01:17;4.43;;;4.03;;
13026;SDS011;6580;42.680;23.324;2023-04-25T03:04:03;4.10;;;3.70;;
13026;SDS011;6580;42.680;23.324;2023-04-25T03:06:50;4.90;;;4.00;;
13026;SDS011;6580;42.680;23.324;2023-04-25T03:09:35;4.93;;;3.87;;
13026;SDS011;6580;42.680;23.324;2023-04-25T03:12:21;5.70;;;4.23;;
13026;SDS011;6580;42.680;23.324;2023-04-25T03:15:07;7.50;;;5.57;;
13026;SDS011;6580;42.680;23.324;2023-04-25T03:17:57;5.37;;;4.83;;
13026;SDS011;6580;42.680;23.324;2023-04-25T03:20:43;6.97;;;5.37;;
13026;SDS011;6580;42.680;23.324;2023-04-25T03:23:29;5.90;;;4.50;;
13026;SDS011;6580;42.680;23.324;2023-04-25T03:26:14;5.87;;;4.80;;
13026;SDS011;6580;42.680;23.324;2023-04-25T03:29:00;5.10;;;4.60;;
13026;SDS011;6580;42.680;23.324;2023-04-25T03:31:48;4.70;;;4.20;;
13026;SDS011;6580;42.680;23.324;2023-04-25T03:34:35;4.73;;;4.17;;
13026;SDS011;6580;42.680;23.324;2023-04-25T03:37:21;5.50;;;4.90;;
13026;SDS011;6580;42.680;23.324;2023-04-25T03:40:29;5.67;;;5.10;;
13026;SDS011;6580;42.680;23.324;2023-04-25T03:43:17;5.90;;;5.03;;
13026;SDS011;6580;42.680;23.324;2023-04-25T03:46:04;5.50;;;4.13;;
13026;SDS011;6580;42.680;23.324;2023-04-25T03:48:49;5.53;;;4.87;;
13026;SDS011;6580;42.680;23.324;2023-04-25T03:51:39;4.57;;;4.17;;
13026;SDS011;6580;42.680;23.324;2023-04-25T03:54:24;5.43;;;4.87;;
13026;SDS011;6580;42.680;23.324;2023-04-25T03:57:13;5.00;;;4.07;;
13026;SDS011;6580;42.680;23.324;2023-04-25T03:59:59;6.00;;;5.00;;
13026;SDS011;6580;42.680;23.324;2023-04-25T04:02:47;4.53;;;4.07;;
13026;SDS011;6580;42.680;23.324;2023-04-25T04:05:39;5.53;;;4.50;;
13026;SDS011;6580;42.680;23.324;2023-04-25T04:08:26;5.20;;;4.20;;
13026;SDS011;6580;42.680;23.324;2023-04-25T04:11:15;4.93;;;4.43;;
13026;SDS011;6580;42.680;23.324;2023-04-25T04:14:01;5.27;;;4.77;;
13026;SDS011;6580;42.680;23.324;2023-04-25T04:16:47;5.40;;;4.57;;
13026;SDS011;6580;42.680;23.324;2023-04-25T04:19:33;5.60;;;4.70;;
13026;SDS011;6580;42.680;23.324;2023-04-25T04:22:20;4.93;;;4.43;;
13026;SDS011;6580;42.680;23.324;2023-04-25T04:25:09;5.73;;;5.03;;
13026;SDS011;6580;42.680;23.324;2023-04-25T04:27:56;7.07;;;5.13;;
13026;SDS011;6580;42.680;23.324;2023-04-25T04:30:44;6.00;;;4.90;;
13026;SDS011;6580;42.680;23.324;2023-04-25T04:33:34;5.40;;;4.90;;
13026;SDS011;6580;42.680;23.324;2023-04-25T04:36:20;7.43;;;6.20;;
13026;SDS011;6580;42.680;23.324;2023-04-25T04:39:06;5.63;;;4.70;;
13026;SDS011;6580;42.680;23.324;2023-04-25T04:41:54;5.60;;;4.33;;
13026;SDS011;6580;42.680;23.324;2023-04-25T04:44:39;5.97;;;4.50;;
13026;SDS011;6580;42.680;23.324;2023-04-25T04:47:24;5.17;;;4.40;;
13026;SDS011;6580;42.680;23.324;2023-04-25T04:50:14;6.23;;;5.50;;
13026;SDS011;6580;42.680;23.324;2023-04-25T04:53:01;7.33;;;5.90;;
13026;SDS011;6580;42.680;23.324;2023-04-25T04:55:47;7.27;;;5.70;;
13026;SDS011;6580;42.680;23.324;2023-04-25T04:58:35;5.77;;;5.17;;
13026;SDS011;6580;42.680;23.324;2023-04-25T05:01:21;6.97;;;5.23;;
13026;SDS011;6580;42.680;23.324;2023-04-25T05:04:07;6.57;;;5.00;;
13026;SDS011;6580;42.680;23.324;2023-04-25T05:06:53;7.47;;;5.43;;
13026;SDS011;6580;42.680;23.324;2023-04-25T05:09:39;8.27;;;5.60;;
13026;SDS011;6580;42.680;23.324;2023-04-25T05:12:25;7.30;;;6.03;;
13026;SDS011;6580;42.680;23.324;2023-04-25T05:15:18;7.07;;;6.07;;
13026;SDS011;6580;42.680;23.324;2023-04-25T05:18:06;6.50;;;5.90;;
13026;SDS011;6580;42.680;23.324;2023-04-25T05:20:52;6.57;;;5.83;;
13026;SDS011;6580;42.680;23.324;2023-04-25T05:23:38;6.83;;;6.13;;
13026;SDS011;6580;42.680;23.324;2023-04-25T05:26:23;7.03;;;5.80;;
13026;SDS011;6580;42.680;23.324;2023-04-25T05:29:09;7.07;;;6.00;;
13026;SDS011;6580;42.680;23.324;2023-04-25T05:31:55;7.63;;;6.53;;
13026;SDS011;6580;42.680;23.324;2023-04-25T05:34:41;7.07;;;6.10;;
13026;SDS011;6580;42.680;23.324;2023-04-25T05:37:27;8.10;;;6.30;;
13026;SDS011;6580;42.680;23.324;2023-04-25T05:40:14;8.10;;;6.77;;
13026;SDS011;6580;42.680;23.324;2023-04-25T05:42:59;9.67;;;6.53;;
13026;SDS011;6580;42.680;23.324;2023-04-25T05:45:45;8.73;;;7.47;;
13026;SDS011;6580;42.680;23.324;2023-04-25T05:48:32;8.33;;;6.57;;
13026;SDS011;6580;42.680;23.324;2023-04-25T05:51:17;8.10;;;6.30;;
13026;SDS011;6580;42.680;23.324;2023-04-25T05:54:03;7.37;;;6.33;;
13026;SDS011;6580;42.680;23.324;2023-04-25T05:56:48;9.17;;;6.47;;
13026;SDS011;6580;42.680;23.324;2023-04-25T05:59:34;9.50;;;6.27;;
13026;SDS011;6580;42.680;23.324;2023-04-25T06:02:20;7.80;;;6.50;;
13026;SDS011;6580;42.680;23.324;2023-04-25T06:05:07;7.97;;;6.17;;
13026;SDS011;6580;42.680;23.324;2023-04-25T06:07:53;8.03;;;6.73;;
13026;SDS011;6580;42.680;23.324;2023-04-25T06:10:39;8.23;;;6.37;;
13026;SDS011;6580;42.680;23.324;2023-04-25T06:13:24;6.70;;;6.03;;
13026;SDS011;6580;42.680;23.324;2023-04-25T06:16:14;6.10;;;5.20;;
13026;SDS011;6580;42.680;23.324;2023-04-25T06:19:00;5.60;;;4.87;;
13026;SDS011;6580;42.680;23.324;2023-04-25T06:21:47;4.37;;;4.00;;
13026;SDS011;6580;42.680;23.324;2023-04-25T06:24:34;5.23;;;4.73;;
13026;SDS011;6580;42.680;23.324;2023-04-25T06:27:19;5.57;;;4.80;;
13026;SDS011;6580;42.680;23.324;2023-04-25T06:30:05;5.40;;;4.10;;
13026;SDS011;6580;42.680;23.324;2023-04-25T06:32:52;4.50;;;4.10;;
13026;SDS011;6580;42.680;23.324;2023-04-25T06:35:40;5.00;;;4.50;;
13026;SDS011;6580;42.680;23.324;2023-04-25T06:38:27;7.10;;;4.57;;
13026;SDS011;6580;42.680;23.324;2023-04-25T06:41:13;5.83;;;4.27;;
13026;SDS011;6580;42.680;23.324;2023-04-25T06:43:59;4.87;;;4.10;;
13026;SDS011;6580;42.680;23.324;2023-04-25T06:46:44;6.37;;;4.50;;
13026;SDS011;6580;42.680;23.324;2023-04-25T06:49:30;5.03;;;4.53;;
13026;SDS011;6580;42.680;23.324;2023-04-25T06:52:17;6.67;;;4.80;;
13026;SDS011;6580;42.680;23.324;2023-04-25T06:55:04;4.30;;;3.90;;
13026;SDS011;6580;42.680;23.324;2023-04-25T06:57:50;7.13;;;4.20;;
13026;SDS011;6580;42.680;23.324;2023-04-25T07:00:36;5.13;;;4.73;;
13026;SDS011;6580;42.680;23.324;2023-04-25T07:03:21;5.83;;;4.40;;
13026;SDS011;6580;42.680;23.324;2023-04-25T07:06:08;4.40;;;4.00;;
13026;SDS011;6580;42.680;23.324;2023-04-25T07:08:55;4.53;;;4.13;;
13026;SDS011;6580;42.680;23.324;2023-04-25T07:11:42;5.10;;;3.90;;
13026;SDS011;6580;42.680;23.324;2023-04-25T07:14:29;6.17;;;4.10;;
13026;SDS011;6580;42.680;23.324;2023-04-25T07:17:15;4.70;;;4.10;;
13026;SDS011;6580;42.680;23.324;2023-04-25T07:20:03;5.63;;;4.60;;
13026;SDS011;6580;42.680;23.324;2023-04-25T07:22:51;4.77;;;4.13;;
13026;SDS011;6580;42.680;23.324;2023-04-25T07:25:37;5.00;;;4.13;;
13026;SDS011;6580;42.680;23.324;2023-04-25T07:28:24;5.13;;;4.30;;
13026;SDS011;6580;42.680;23.324;2023-04-25T07:31:09;4.80;;;3.73;;
13026;SDS011;6580;42.680;23.324;2023-04-25T07:33:55;4.80;;;3.97;;
13026;SDS011;6580;42.680;23.324;2023-04-25T07:36:40;5.13;;;4.57;;
13026;SDS011;6580;42.680;23.324;2023-04-25T07:39:26;5.60;;;4.43;;
13026;SDS011;6580;42.680;23.324;2023-04-25T07:42:12;6.07;;;4.77;;
13026;SDS011;6580;42.680;23.324;2023-04-25T07:44:59;4.93;;;4.40;;
13026;SDS011;6580;42.680;23.324;2023-04-25T07:47:47;5.80;;;4.70;;
13026;SDS011;6580;42.680;23.324;2023-04-25T07:50:35;5.17;;;4.33;;
13026;SDS011;6580;42.680;23.324;2023-04-25T07:53:22;4.67;;;4.10;;
13026;SDS011;6580;42.680;23.324;2023-04-25T07:56:07;5.10;;;4.27;;
13026;SDS011;6580;42.680;23.324;2023-04-25T07:58:54;4.80;;;4.10;;
13026;SDS011;6580;42.680;23.324;2023-04-25T08:01:41;7.30;;;4.10;;
13026;SDS011;6580;42.680;23.324;2023-04-25T08:04:27;6.20;;;5.10;;
13026;SDS011;6580;42.680;23.324;2023-04-25T08:07:13;4.80;;;4.30;;
13026;SDS011;6580;42.680;23.324;2023-04-25T08:09:59;4.13;;;3.73;;
13026;SDS011;6580;42.680;23.324;2023-04-25T08:12:46;6.47;;;4.50;;
13026;SDS011;6580;42.680;23.324;2023-04-25T08:15:33;5.77;;;4.30;;
13026;SDS011;6580;42.680;23.324;2023-04-25T08:18:20;4.60;;;3.60;;
13026;SDS011;6580;42.680;23.324;2023-04-25T08:21:06;4.00;;;3.70;;
13026;SDS011;6580;42.680;23.324;2023-04-25T08:23:52;3.58;;;3.28;;
13026;SDS011;6580;42.680;23.324;2023-04-25T08:26:38;3.80;;;3.50;;
13026;SDS011;6580;42.680;23.324;2023-04-25T08:29:25;3.35;;;3.08;;
13026;SDS011;6580;42.680;23.324;2023-04-25T08:32:12;4.03;;;2.95;;
13026;SDS011;6580;42.680;23.324;2023-04-25T08:34:59;3.53;;;3.22;;
13026;SDS011;6580;42.680;23.324;2023-04-25T08:37:44;4.18;;;3.78;;
13026;SDS011;6580;42.680;23.324;2023-04-25T08:40:30;4.40;;;4.00;;
13026;SDS011;6580;42.680;23.324;2023-04-25T08:43:23;5.43;;;4.50;;
13026;SDS011;6580;42.680;23.324;2023-04-25T08:46:10;4.63;;;4.13;;
13026;SDS011;6580;42.680;23.324;2023-04-25T08:49:00;4.93;;;4.50;;
13026;SDS011;6580;42.680;23.324;2023-04-25T08:51:49;4.90;;;3.95;;
13026;SDS011;6580;42.680;23.324;2023-04-25T08:54:38;4.90;;;4.13;;
13026;SDS011;6580;42.680;23.324;2023-04-25T08:57:28;5.13;;;4.63;;
13026;SDS011;6580;42.680;23.324;2023-04-25T09:00:16;5.03;;;4.57;;
13026;SDS011;6580;42.680;23.324;2023-04-25T09:03:03;4.83;;;4.33;;
13026;SDS011;6580;42.680;23.324;2023-04-25T09:05:48;7.20;;;3.90;;
13026;SDS011;6580;42.680;23.324;2023-04-25T09:08:37;10.40;;;6.53;;
13026;SDS011;6580;42.680;23.324;2023-04-25T09:11:23;5.82;;;4.38;;
13026;SDS011;6580;42.680;23.324;2023-04-25T09:14:12;4.83;;;4.40;;
13026;SDS011;6580;42.680;23.324;2023-04-25T09:16:59;5.43;;;4.93;;
13026;SDS011;6580;42.680;23.324;2023-04-25T09:19:46;4.72;;;4.20;;
13026;SDS011;6580;42.680;23.324;2023-04-25T09:22:31;5.13;;;4.63;;
13026;SDS011;6580;42.680;23.324;2023-04-25T09:25:18;4.13;;;3.72;;
13026;SDS011;6580;42.680;23.324;2023-04-25T09:28:04;4.63;;;4.15;;
13026;SDS011;6580;42.680;23.324;2023-04-25T09:30:54;5.03;;;4.53;;
13026;SDS011;6580;42.680;23.324;2023-04-25T09:33:41;3.72;;;3.20;;
13026;SDS011;6580;42.680;23.324;2023-04-25T09:36:26;4.57;;;3.63;;
13026;SDS011;6580;42.680;23.324;2023-04-25T09:39:13;4.15;;;3.72;;
13026;SDS011;6580;42.680;23.324;2023-04-25T09:42:01;3.50;;;3.20;;
13026;SDS011;6580;42.680;23.324;2023-04-25T09:44:49;4.32;;;3.92;;
13026;SDS011;6580;42.680;23.324;2023-04-25T09:47:38;3.60;;;2.95;;
13026;SDS011;6580;42.680;23.324;2023-04-25T09:50:23;4.35;;;3.95;;
13026;SDS011;6580;42.680;23.324;2023-04-25T09:53:09;4.03;;;3.33;;
13026;SDS011;6580;42.680;23.324;2023-04-25T09:55:55;3.17;;;2.88;;
13026;SDS011;6580;42.680;23.324;2023-04-25T09:58:42;2.40;;;2.20;;
13026;SDS011;6580;42.680;23.324;2023-04-25T10:01:28;2.75;;;2.00;;
13026;SDS011;6580;42.680;23.324;2023-04-25T10:04:16;3.50;;;3.20;;
13026;SDS011;6580;42.680;23.324;2023-04-25T10:07:06;4.40;;;3.45;;
13026;SDS011;6580;42.680;23.324;2023-04-25T10:09:58;3.58;;;3.15;;
13026;SDS011;6580;42.680;23.324;2023-04-25T10:12:45;3.63;;;3.33;;
13026;SDS011;6580;42.680;23.324;2023-04-25T10:15:33;3.72;;;3.42;;
13026;SDS011;6580;42.680;23.324;2023-04-25T10:18:20;4.95;;;4.20;;
13026;SDS011;6580;42.680;23.324;2023-04-25T10:21:06;2.20;;;1.98;;
13026;SDS011;6580;42.680;23.324;2023-04-25T10:23:52;1.85;;;1.33;;
13026;SDS011;6580;42.680;23.324;2023-04-25T10:26:39;1.17;;;1.07;;
13026;SDS011;6580;42.680;23.324;2023-04-25T10:29:27;1.40;;;1.33;;
13026;SDS011;6580;42.680;23.324;2023-04-25T10:32:15;2.97;;;2.40;;
13026;SDS011;6580;42.680;23.324;2023-04-25T10:35:11;4.00;;;2.92;;
13026;SDS011;6580;42.680;23.324;2023-04-25T10:38:04;1.33;;;1.23;;
13026;SDS011;6580;42.680;23.324;2023-04-25T10:41:02;2.47;;;1.98;;
13026;SDS011;6580;42.680;23.324;2023-04-25T10:43:49;1.77;;;1.67;;
13026;SDS011;6580;42.680;23.324;2023-04-25T10:46:46;1.88;;;1.77;;
13026;SDS011;6580;42.680;23.324;2023-04-25T10:49:35;2.70;;;2.38;;
13026;SDS011;6580;42.680;23.324;2023-04-25T10:52:27;2.45;;;1.40;;
13026;SDS011;6580;42.680;23.324;2023-04-25T10:55:13;1.20;;;1.17;;
13026;SDS011;6580;42.680;23.324;2023-04-25T10:58:01;1.48;;;1.38;;
13026;SDS011;6580;42.680;23.324;2023-04-25T11:00:47;1.17;;;1.13;;
13026;SDS011;6580;42.680;23.324;2023-04-25T11:03:37;2.22;;;1.23;;
13026;SDS011;6580;42.680;23.324;2023-04-25T11:06:28;0.90;;;0.90;;
13026;SDS011;6580;42.680;23.324;2023-04-25T11:09:23;0.80;;;0.80;;
13026;SDS011;6580;42.680;23.324;2023-04-25T11:12:09;2.30;;;1.50;;
13026;SDS011;6580;42.680;23.324;2023-04-25T11:14:58;1.60;;;1.50;;
13026;SDS011;6580;42.680;23.324;2023-04-25T11:17:45;3.45;;;3.08;;
13026;SDS011;6580;42.680;23.324;2023-04-25T11:20:33;2.13;;;1.92;;
13026;SDS011;6580;42.680;23.324;2023-04-25T11:23:23;1.73;;;1.63;;
13026;SDS011;6580;42.680;23.324;2023-04-25T11:26:10;1.17;;;1.08;;
13026;SDS011;6580;42.680;23.324;2023-04-25T11:28:59;1.63;;;1.52;;
13026;SDS011;6580;42.680;23.324;2023-04-25T11:31:44;0.90;;;0.90;;
13026;SDS011;6580;42.680;23.324;2023-04-25T11:34:30;1.40;;;1.30;;
13026;SDS011;6580;42.680;23.324;2023-04-25T11:37:16;0.88;;;0.80;;
13026;SDS011;6580;42.680;23.324;2023-04-25T11:40:04;2.65;;;1.70;;
13026;SDS011;6580;42.680;23.324;2023-04-25T11:42:54;1.77;;;1.30;;
13026;SDS011;6580;42.680;23.324;2023-04-25T11:45:40;1.10;;;0.93;;
13026;SDS011;6580;42.680;23.324;2023-04-25T11:48:25;1.60;;;1.50;;
13026;SDS011;6580;42.680;23.324;2023-04-25T11:51:11;1.35;;;1.25;;
13026;SDS011;6580;42.680;23.324;2023-04-25T11:53:57;1.30;;;1.20;;
13026;SDS011;6580;42.680;23.324;2023-04-25T11:56:45;1.85;;;1.50;;
13026;SDS011;6580;42.680;23.324;2023-04-25T11:59:32;1.27;;;1.17;;
13026;SDS011;6580;42.680;23.324;2023-04-25T12:02:24;0.97;;;0.97;;
13026;SDS011;6580;42.680;23.324;2023-04-25T12:05:12;1.00;;;1.00;;
13026;SDS011;6580;42.680;23.324;2023-04-25T12:08:10;1.00;;;0.90;;
13026;SDS011;6580;42.680;23.324;2023-04-25T12:10:57;0.97;;;0.97;;
13026;SDS011;6580;42.680;23.324;2023-04-25T12:13:51;0.93;;;0.90;;
13026;SDS011;6580;42.680;23.324;2023-04-25T12:16:40;1.05;;;1.05;;
13026;SDS011;6580;42.680;23.324;2023-04-25T12:19:31;1.08;;;1.02;;
13026;SDS011;6580;42.680;23.324;2023-04-25T12:22:21;1.17;;;1.08;;
13026;SDS011;6580;42.680;23.324;2023-04-25T12:25:09;1.03;;;1.00;;
13026;SDS011;6580;42.680;23.324;2023-04-25T12:28:08;1.33;;;1.07;;
13026;SDS011;6580;42.680;23.324;2023-04-25T12:30:57;1.88;;;1.08;;
13026;SDS011;6580;42.680;23.324;2023-04-25T12:33:44;0.95;;;0.95;;
13026;SDS011;6580;42.680;23.324;2023-04-25T12:36:32;3.45;;;2.22;;
13026;SDS011;6580;42.680;23.324;2023-04-25T12:39:19;4.67;;;2.17;;
13026;SDS011;6580;42.680;23.324;2023-04-25T12:42:06;4.07;;;2.10;;
13026;SDS011;6580;42.680;23.324;2023-04-25T12:44:55;2.33;;;1.23;;
13026;SDS011;6580;42.680;23.324;2023-04-25T12:47:43;2.80;;;2.60;;
13026;SDS011;6580;42.680;23.324;2023-04-25T12:50:29;2.00;;;1.47;;
13026;SDS011;6580;42.680;23.324;2023-04-25T12:53:15;2.53;;;1.43;;
13026;SDS011;6580;42.680;23.324;2023-04-25T12:56:01;1.50;;;1.43;;
13026;SDS011;6580;42.680;23.324;2023-04-25T12:58:47;1.27;;;1.10;;
13026;SDS011;6580;42.680;23.324;2023-04-25T13:01:35;1.70;;;1.60;;
13026;SDS011;6580;42.680;23.324;2023-04-25T13:04:22;1.67;;;1.57;;
13026;SDS011;6580;42.680;23.324;2023-04-25T13:07:08;1.63;;;1.53;;
13026;SDS011;6580;42.680;23.324;2023-04-25T13:09:54;2.50;;;2.17;;
13026;SDS011;6580;42.680;23.324;2023-04-25T13:12:40;2.20;;;2.00;;
13026;SDS011;6580;42.680;23.324;2023-04-25T13:15:26;2.53;;;2.33;;
13026;SDS011;6580;42.680;23.324;2023-04-25T13:18:12;2.60;;;2.40;;
13026;SDS011;6580;42.680;23.324;2023-04-25T13:21:02;2.83;;;1.90;;
13026;SDS011;6580;42.680;23.324;2023-04-25T13:23:48;2.30;;;2.20;;
13026;SDS011;6580;42.680;23.324;2023-04-25T13:26:33;2.30;;;2.10;;
13026;SDS011;6580;42.680;23.324;2023-04-25T13:29:20;3.07;;;2.87;;
13026;SDS011;6580;42.680;23.324;2023-04-25T13:32:07;2.47;;;1.97;;
13026;SDS011;6580;42.680;23.324;2023-04-25T13:34:53;2.10;;;2.00;;
13026;SDS011;6580;42.680;23.324;2023-04-25T13:37:41;2.60;;;2.40;;
13026;SDS011;6580;42.680;23.324;2023-04-25T13:40:27;2.47;;;1.97;;
13026;SDS011;6580;42.680;23.324;2023-04-25T13:43:13;3.53;;;2.40;;
13026;SDS011;6580;42.680;23.324;2023-04-25T13:45:58;4.50;;;2.47;;
13026;SDS011;6580;42.680;23.324;2023-04-25T13:48:44;2.57;;;2.47;;
13026;SDS011;6580;42.680;23.324;2023-04-25T13:51:32;1.90;;;1.80;;
13026;SDS011;6580;42.680;23.324;2023-04-25T13:54:19;2.50;;;2.30;;
13026;SDS011;6580;42.680;23.324;2023-04-25T13:57:06;1.87;;;1.70;;
13026;SDS011;6580;42.680;23.324;2023-04-25T13:59:54;2.70;;;2.13;;
13026;SDS011;6580;42.680;23.324;2023-04-25T14:02:41;2.87;;;2.67;;
13026;SDS011;6580;42.680;23.324;2023-04-25T14:05:26;3.97;;;2.03;;
13026;SDS011;6580;42.680;23.324;2023-04-25T14:08:13;2.90;;;2.20;;
13026;SDS011;6580;42.680;23.324;2023-04-25T14:10:59;1.80;;;1.70;;
13026;SDS011;6580;42.680;23.324;2023-04-25T14:13:47;1.50;;;1.20;;
13026;SDS011;6580;42.680;23.324;2023-04-25T14:16:33;1.60;;;1.50;;
13026;SDS011;6580;42.680;23.324;2023-04-25T14:19:18;1.43;;;1.30;;
13026;SDS011;6580;42.680;23.324;2023-04-25T14:22:05;2.13;;;1.50;;
13026;SDS011;6580;42.680;23.324;2023-04-25T14:24:50;1.70;;;1.60;;
13026;SDS011;6580;42.680;23.324;2023-04-25T14:27:36;1.67;;;1.57;;
13026;SDS011;6580;42.680;23.324;2023-04-25T14:30:22;1.57;;;1.30;;
13026;SDS011;6580;42.680;23.324;2023-04-25T14:33:08;1.73;;;1.63;;
13026;SDS011;6580;42.680;23.324;2023-04-25T14:35:57;1.10;;;1.10;;
13026;SDS011;6580;42.680;23.324;2023-04-25T14:38:43;1.77;;;1.67;;
13026;SDS011;6580;42.680;23.324;2023-04-25T14:41:29;1.53;;;1.43;;
13026;SDS011;6580;42.680;23.324;2023-04-25T14:44:16;1.87;;;1.13;;
13026;SDS011;6580;42.680;23.324;2023-04-25T14:47:02;1.50;;;1.40;;
13026;SDS011;6580;42.680;23.324;2023-04-25T14:49:50;1.73;;;1.63;;
13026;SDS011;6580;42.680;23.324;2023-04-25T14:52:38;1.40;;;1.30;;
13026;SDS011;6580;42.680;23.324;2023-04-25T14:55:24;1.57;;;1.47;;
13026;SDS011;6580;42.680;23.324;2023-04-25T14:58:10;2.10;;;1.80;;
13026;SDS011;6580;42.680;23.324;2023-04-25T15:00:57;3.37;;;2.37;;
13026;SDS011;6580;42.680;23.324;2023-04-25T15:03:43;2.17;;;2.03;;
13026;SDS011;6580;42.680;23.324;2023-04-25T15:06:28;1.60;;;1.50;;
13026;SDS011;6580;42.680;23.324;2023-04-25T15:09:14;2.87;;;1.77;;
13026;SDS011;6580;42.680;23.324;2023-04-25T15:12:00;1.80;;;1.70;;
13026;SDS011;6580;42.680;23.324;2023-04-25T15:14:47;2.30;;;2.10;;
13026;SDS011;6580;42.680;23.324;2023-04-25T15:17:34;2.33;;;2.13;;
13026;SDS011;6580;42.680;23.324;2023-04-25T15:20:20;1.83;;;1.73;;
13026;SDS011;6580;42.680;23.324;2023-04-25T15:23:06;1.70;;;1.60;;
13026;SDS011;6580;42.680;23.324;2023-04-25T15:25:52;2.10;;;1.90;;
13026;SDS011;6580;42.680;23.324;2023-04-25T15:28:39;1.77;;;1.63;;
13026;SDS011;6580;42.680;23.324;2023-04-25T15:31:25;2.23;;;2.03;;
13026;SDS011;6580;42.680;23.324;2023-04-25T15:34:11;2.40;;;2.20;;
13026;SDS011;6580;42.680;23.324;2023-04-25T15:36:57;2.17;;;2.00;;
13026;SDS011;6580;42.680;23.324;2023-04-25T15:39:43;2.10;;;2.00;;
13026;SDS011;6580;42.680;23.324;2023-04-25T15:42:29;2.33;;;2.20;;
13026;SDS011;6580;42.680;23.324;2023-04-25T15:45:15;2.87;;;2.33;;
13026;SDS011;6580;42.680;23.324;2023-04-25T15:48:02;2.37;;;2.20;;
13026;SDS011;6580;42.680;23.324;2023-04-25T15:50:49;2.50;;;2.30;;
13026;SDS011;6580;42.680;23.324;2023-04-25T15:53:36;3.13;;;2.60;;
13026;SDS011;6580;42.680;23.324;2023-04-25T15:56:22;2.20;;;2.10;;
13026;SDS011;6580;42.680;23.324;2023-04-25T15:59:08;3.20;;;3.00;;
13026;SDS011;6580;42.680;23.324;2023-04-25T16:01:53;2.53;;;2.33;;
13026;SDS011;6580;42.680;23.324;2023-04-25T16:04:39;2.80;;;2.60;;
13026;SDS011;6580;42.680;23.324;2023-04-25T16:07:26;2.67;;;2.47;;
13026;SDS011;6580;42.680;23.324;2023-04-25T16:10:12;2.27;;;2.10;;
13026;SDS011;6580;42.680;23.324;2023-04-25T16:13:02;2.70;;;2.50;;
13026;SDS011;6580;42.680;23.324;2023-04-25T16:15:48;4.07;;;2.60;;
13026;SDS011;6580;42.680;23.324;2023-04-25T16:18:34;1.43;;;1.27;;
13026;SDS011;6580;42.680;23.324;2023-04-25T16:21:19;1.53;;;1.43;;
13026;SDS011;6580;42.680;23.324;2023-04-25T16:24:07;1.53;;;1.43;;
13026;SDS011;6580;42.680;23.324;2023-04-25T16:26:53;1.70;;;1.60;;
13026;SDS011;6580;42.680;23.324;2023-04-25T16:29:38;1.50;;;1.40;;
13026;SDS011;6580;42.680;23.324;2023-04-25T16:32:25;1.53;;;1.20;;
13026;SDS011;6580;42.680;23.324;2023-04-25T16:35:12;2.13;;;1.73;;
13026;SDS011;6580;42.680;23.324;2023-04-25T16:37:59;1.90;;;1.80;;
13026;SDS011;6580;42.680;23.324;2023-04-25T16:40:47;2.40;;;2.20;;
13026;SDS011;6580;42.680;23.324;2023-04-25T16:43:32;3.20;;;2.90;;
13026;SDS011;6580;42.680;23.324;2023-04-25T16:46:18;2.17;;;2.07;;